Sonic Adventure (DX): Boss Rankings

Records: Times | Rings | Scores | Races | Bosses | Freestyle
Leaders: Times | Rings | Scores | Races | Bosses | Freestyle | Overall
Rank Player Percent Points Date
1 Sonicspeedruner 98.4% 32 08-27-16
2 Gamepro011 97.0% 62 08-27-16
3 Austinf 92.9% 149 08-27-16
4 DarkPolarNight 91.8% 172 08-27-16
5 Jawzun 89.7% 215 08-27-16
6 drminus 89.6% 218 08-27-16
7 Parax 87.7% 257 08-27-16
8 ike6252 87.2% 268 08-27-16
9 Dashjump 85.1% 312 08-27-16
10 Avento128bits 84.7% 321 08-27-16
11 Coolfansonic 81.8% 382 08-27-16
12 DarkspinesSonic 81.3% 392 08-27-16
13 THC98 79.0% 440 08-27-16
14 F-Man 76.9% 484 08-27-16
15 TheRealShadnic 76.5% 493 08-27-16
16 Marth 75.8% 507 08-27-16
17 yoshifan 74.1% 543 08-27-16
18 Mariobutch 74.0% 545 08-27-16
19 PfoSonic 72.8% 570 08-27-16
20 InferSaime 72.5% 576 08-27-16
21 HyperSonic7701 70.6% 617 08-27-16
22 RPGnutter 69.6% 636 08-27-16
23 Paragod 68.1% 668 08-27-16
24 mike89 67.6% 678 08-27-16
25 frankoredstrato 67.5% 682 08-27-16
26 Groudon199 63.3% 770 08-27-16
26 sonicam 63.3% 770 08-27-16
28 SadisticMystic 63.0% 776 08-27-16
29 xXMegaManXx 61.8% 801 08-27-16
30 Stefan 61.4% 809 08-27-16
31 Diamond 60.4% 830 08-27-16
32 Combo 57.9% 883 08-27-16
33 bertin 57.6% 888 08-27-16
34 SkyLights 54.8% 947 08-27-16
35 francisco 49.2% 1065 08-27-16
36 Arch 49.1% 1067 08-27-16
37 Fr3nZy 49.1% 1068 08-27-16
38 OmegaDJ 47.1% 1109 08-27-16
39 Andrea Ritsu 46.8% 1115 08-27-16
40 Omega Rafael Santos 45.7% 1138 08-27-16
41 P1 Pause 44.5% 1164 08-27-16
42 magnum12 42.2% 1213 08-27-16
43 VeritasDL 41.5% 1227 08-27-16
44 Auriman1 38.3% 1293 08-27-16
45 James_Bertolli 35.9% 1344 08-27-16
46 teamblackarms 34.4% 1375 08-27-16
47 Hunters13 34.2% 1380 08-27-16
48 FuzZerd 33.4% 1397 08-27-16
49 Drakodan 33.2% 1401 08-27-16
50 Psymar 32.4% 1417 08-27-16
51 Quartz 32.2% 1423 08-27-16
52 eggFL 31.9% 1428 08-27-16
53 Cyan Ryan 31.6% 1434 08-27-16
54 Jerzia 31.0% 1448 08-27-16
55 GerbilSoft 30.9% 1450 08-27-16
56 elecmouse101 30.4% 1460 08-27-16
57 Thorn 30.1% 1466 08-27-16
58 Webber3000 29.9% 1470 08-27-16
59 videogamemaster777 29.7% 1474 08-27-16
60 Mo Player Banned 28.3% 1503 08-27-16
60 Turbos 28.3% 1503 08-27-16
62 Termon 27.1% 1529 08-27-16
63 Nimrod 26.6% 1539 08-27-16
64 Dave Cramer 26.2% 1549 08-27-16
65 Flying Fox 26.0% 1553 08-27-16
66 nuckrieg 25.1% 1571 08-27-16
67 buddychaos0415 25.1% 1572 08-27-16
68 Shadow Jacky 24.0% 1595 08-27-16
69 Cream147 21.5% 1647 08-27-16
70 supersonicfan 21.3% 1651 08-27-16
71 MiStEr_ShAoLiN 20.9% 1659 08-27-16
72 NintenDan 20.8% 1661 08-27-16
73 thewaytodawnnn 20.8% 1662 08-27-16
74 Aitamen 20.6% 1665 08-27-16
75 itsPersonnal 20.5% 1668 08-27-16
76 The T 20.3% 1671 08-27-16
77 supersonic465 20.1% 1677 08-27-16
78 Cybrax 20.0% 1678 08-27-16
79 SonicWinDX 19.4% 1690 08-27-16
80 Cruizer 18.9% 1701 08-27-16
81 VMU Player Banned 17.7% 1727 08-27-16
82 Game_Complete 17.2% 1737 08-27-16
83 The Great Lord Mick 16.6% 1749 08-27-16
84 Questionguy555 15.9% 1764 08-27-16
85 GreatStar 15.9% 1765 08-27-16
86 Spinballwizard 15.3% 1777 08-27-16
87 Sondow 14.6% 1792 08-27-16
88 sonicandamy Player Banned 14.1% 1801 08-27-16
89 Destroyer121121 14.0% 1805 08-27-16
90 GarnetPrincess 13.4% 1816 08-27-16
91 SonicAD 12.0% 1846 08-27-16
92 Don 11.4% 1859 08-27-16
93 Miles9999 11.1% 1864 08-27-16
94 SuperBlitzCraig 11.0% 1868 08-27-16
95 Siavash Tazari 10.9% 1870 08-27-16
96 BigAL49 10.3% 1881 08-27-16
96 Cutiefox 10.3% 1881 08-27-16
98 Psyknux 10.1% 1885 08-27-16
99 knuckles_sonic8 9.7% 1895 08-27-16
99 Werey 9.7% 1895 08-27-16
101 joecoolgames 9.5% 1898 08-27-16
102 mauserman 9.1% 1906 08-27-16
103 EngiNerd 9.0% 1910 08-27-16
104 Badlex727 8.9% 1911 08-27-16
105 Sonic Singularity 8.7% 1916 08-27-16
106 dShadow 8.5% 1920 08-27-16
107 Hipertails12 8.3% 1923 08-27-16
108 Aiko 8.0% 1929 08-27-16
109 Shanekilz 8.0% 1931 08-27-16
110 Therio 7.6% 1939 08-27-16
111 Mastakirby 7.4% 1942 08-27-16
112 TommyeAsY 7.0% 1951 08-27-16
113 chainchumper 6.9% 1953 08-27-16
114 FocusSight64 6.8% 1955 08-27-16
115 TheChaosEmeraIds 6.8% 1956 08-27-16
116 sonic29887 6.7% 1957 08-27-16
117 Chao_Fan 6.6% 1959 08-27-16
118 HHNNBBHHN 6.0% 1972 08-27-16
119 djmat 6.0% 1973 08-27-16
120 tal39h 5.9% 1974 08-27-16
121 paulie9990 5.7% 1978 08-27-16
122 Sogeking 5.4% 1984 08-27-16
123 Brian_pso 5.0% 1994 08-27-16
124 Chawkk 4.9% 1995 08-27-16
125 SilvertheAlmighty 4.6% 2002 08-27-16
126 MK 4.5% 2004 08-27-16
126 SpinDashMaster 4.5% 2004 08-27-16
128 MastaToken 4.1% 2012 08-27-16
129 Sonique Hedgehog 3.8% 2019 08-27-16
129 SpiritDragon1995 3.8% 2019 08-27-16
131 KinkyCadence 3.5% 2024 08-27-16
132 Mad Andy 3.4% 2027 08-27-16
132 N 3.4% 2027 08-27-16
132 PsyBorg 3.4% 2027 08-27-16
135 FSSRandomvids 3.2% 2030 08-27-16
136 koinu93 2.9% 2037 08-27-16
136 Rolken 2.9% 2037 08-27-16
138 Xia 2.8% 2039 08-27-16
139 andres430 2.6% 2044 08-27-16
140 dabestgamer 2.2% 2051 08-27-16
141 crazy1993 2.2% 2052 08-27-16
141 shadowblast63 Player Banned 2.2% 2052 08-27-16
143 Illidan 2.0% 2055 08-27-16
144 Richied 2.0% 2057 08-27-16
145 DanielTheFalcon 1.8% 2061 08-27-16
145 gamer1245 1.8% 2061 08-27-16
147 Iwannabelink 1.7% 2062 08-27-16
148 oTaiIilLsS 1.4% 2069 08-27-16
149 soniccoloursunleashed 1.3% 2070 08-27-16
150 niscool 1.3% 2071 08-27-16
151 Redd 1.1% 2075 08-27-16
152 ieatatsonic 1.0% 2076 08-27-16
153 LinksDarkArrows 0.8% 2081 08-27-16
154 Lil_Dude 0.8% 2082 08-27-16
155 Cbwade15 0.4% 2089 08-27-16
156 neaolas 0.3% 2091 08-27-16
157 BlankTH 0.2% 2094 08-27-16
158 Heroes_Hater 0.1% 2095 08-27-16
159 S-MS32X-S 0.0% 2097 08-27-16
160 KaM Mark MaK 0.0% 2099 08-27-16
160 MegabombBlade 0.0% 2099 08-27-16

This page is using the New Data Table System. [FUTURE]

Game ID: 3 | Category ID: 6
Hits: 4,367 | Hits This Month: 15 | DB Calls: 24 | Mem Usage: 5.35 MB | Time: 0.59s | Printable

The Sonic Center v3.9 Hax in Progress
Copyright 2003-2011 by The Sonic Center Team.